CKM3 weather

Shilo Heliport
Shilo, Manitoba, Canada

Public forecast

Using degrees Celsius for public forecast. Weather courtesy of forecast.io.

METAR (pilot weather report)

Closest report is Brandon Municipal Airport, 14.0 nm (25.9 km) WNW. Retrieved 2019/05/19 22:00 UTC (38 minutes ago):

CYBR 192200Z 05016G28KT 15SM FEW055 BKN250 14/M00 A3009 RMK SC1CI6 SLP207 DENSITY ALT 1400FT

TAF (pilot weather forecast)

Closest forecast is Brandon Municipal Airport, 14.0 nm (25.9 km) WNW. Retrieved 2019/05/19 18:39 UTC (4 hours ago):

TAF TAF CYBR 191738Z 1918/2006 06018G28KT P6SM SCT050 BKN250 TEMPO 1918/1921 BKN050 BKN250 BECMG 2000/2002 06010KT FM200400 05008KT P6SM SCT250 RMK NXT FCST BY 200000Z